sensor_id;sensor_type;location;lat;lon;timestamp;temperature;humidity
78896;HTU21D;68284;59.124;37.910;2023-07-16T00:00:11;18.92;73.72
78896;HTU21D;68284;59.124;37.910;2023-07-16T00:02:38;18.86;73.90
78896;HTU21D;68284;59.124;37.910;2023-07-16T00:05:04;18.81;74.12
78896;HTU21D;68284;59.124;37.910;2023-07-16T00:07:30;18.73;74.40
78896;HTU21D;68284;59.124;37.910;2023-07-16T00:09:56;18.65;74.71
78896;HTU21D;68284;59.124;37.910;2023-07-16T00:12:23;18.58;74.95
78896;HTU21D;68284;59.124;37.910;2023-07-16T00:14:49;18.50;75.24
78896;HTU21D;68284;59.124;37.910;2023-07-16T00:17:15;18.44;75.45
78896;HTU21D;68284;59.124;37.910;2023-07-16T00:19:42;18.41;75.65
78896;HTU21D;68284;59.124;37.910;2023-07-16T00:22:08;18.37;75.84
78896;HTU21D;68284;59.124;37.910;2023-07-16T00:24:36;18.33;75.98
78896;HTU21D;68284;59.124;37.910;2023-07-16T00:27:03;18.29;76.03
78896;HTU21D;68284;59.124;37.910;2023-07-16T00:29:31;18.27;76.09
78896;HTU21D;68284;59.124;37.910;2023-07-16T00:31:57;18.27;76.08
78896;HTU21D;68284;59.124;37.910;2023-07-16T00:34:23;18.26;76.08
78896;HTU21D;68284;59.124;37.910;2023-07-16T00:36:50;18.26;76.09
78896;HTU21D;68284;59.124;37.910;2023-07-16T00:39:16;18.28;76.02
78896;HTU21D;68284;59.124;37.910;2023-07-16T00:41:43;18.29;75.92
78896;HTU21D;68284;59.124;37.910;2023-07-16T00:44:10;18.34;75.81
78896;HTU21D;68284;59.124;37.910;2023-07-16T00:46:36;18.36;75.60
78896;HTU21D;68284;59.124;37.910;2023-07-16T00:49:02;18.39;75.36
78896;HTU21D;68284;59.124;37.910;2023-07-16T00:51:29;18.41;75.11
78896;HTU21D;68284;59.124;37.910;2023-07-16T00:53:56;18.44;74.89
78896;HTU21D;68284;59.124;37.910;2023-07-16T00:56:22;18.48;74.60
78896;HTU21D;68284;59.124;37.910;2023-07-16T00:58:49;18.52;74.32
78896;HTU21D;68284;59.124;37.910;2023-07-16T01:01:15;18.55;74.06
78896;HTU21D;68284;59.124;37.910;2023-07-16T01:03:41;18.59;73.74
78896;HTU21D;68284;59.124;37.910;2023-07-16T01:08:42;18.70;73.03
78896;HTU21D;68284;59.124;37.910;2023-07-16T01:11:12;18.74;72.77
78896;HTU21D;68284;59.124;37.910;2023-07-16T01:13:38;18.80;72.50
78896;HTU21D;68284;59.124;37.910;2023-07-16T01:16:05;18.85;72.26
78896;HTU21D;68284;59.124;37.910;2023-07-16T01:18:31;18.88;72.02
78896;HTU21D;68284;59.124;37.910;2023-07-16T01:20:57;18.92;71.76
78896;HTU21D;68284;59.124;37.910;2023-07-16T01:23:39;18.95;71.55
78896;HTU21D;68284;59.124;37.910;2023-07-16T01:31:37;19.02;71.30
78896;HTU21D;68284;59.124;37.910;2023-07-16T01:34:06;19.03;71.31
78896;HTU21D;68284;59.124;37.910;2023-07-16T01:36:34;19.07;71.35
78896;HTU21D;68284;59.124;37.910;2023-07-16T01:39:02;19.09;71.38
78896;HTU21D;68284;59.124;37.910;2023-07-16T01:41:28;19.11;71.45
78896;HTU21D;68284;59.124;37.910;2023-07-16T01:43:54;19.12;71.45
78896;HTU21D;68284;59.124;37.910;2023-07-16T01:46:21;19.15;71.42
78896;HTU21D;68284;59.124;37.910;2023-07-16T01:48:47;19.20;71.42
78896;HTU21D;68284;59.124;37.910;2023-07-16T01:51:14;19.22;71.38
78896;HTU21D;68284;59.124;37.910;2023-07-16T01:53:40;19.25;71.38
78896;HTU21D;68284;59.124;37.910;2023-07-16T01:56:07;19.29;71.41
78896;HTU21D;68284;59.124;37.910;2023-07-16T01:58:33;19.32;71.42
78896;HTU21D;68284;59.124;37.910;2023-07-16T02:00:59;19.35;71.43
78896;HTU21D;68284;59.124;37.910;2023-07-16T02:03:25;19.38;71.42
78896;HTU21D;68284;59.124;37.910;2023-07-16T02:05:52;19.40;71.45
78896;HTU21D;68284;59.124;37.910;2023-07-16T02:08:18;19.43;71.48
78896;HTU21D;68284;59.124;37.910;2023-07-16T02:10:47;19.46;71.54
78896;HTU21D;68284;59.124;37.910;2023-07-16T02:13:14;19.50;71.50
78896;HTU21D;68284;59.124;37.910;2023-07-16T02:15:40;19.54;71.43
78896;HTU21D;68284;59.124;37.910;2023-07-16T02:18:06;19.59;71.35
78896;HTU21D;68284;59.124;37.910;2023-07-16T02:20:34;19.65;71.29
78896;HTU21D;68284;59.124;37.910;2023-07-16T02:23:01;19.71;71.19
78896;HTU21D;68284;59.124;37.910;2023-07-16T02:25:27;19.75;71.16
78896;HTU21D;68284;59.124;37.910;2023-07-16T02:27:53;19.80;71.13
78896;HTU21D;68284;59.124;37.910;2023-07-16T02:30:20;19.84;71.08
78896;HTU21D;68284;59.124;37.910;2023-07-16T02:32:46;19.86;71.06
78896;HTU21D;68284;59.124;37.910;2023-07-16T02:35:13;19.89;71.09
78896;HTU21D;68284;59.124;37.910;2023-07-16T02:37:39;19.92;71.04
78896;HTU21D;68284;59.124;37.910;2023-07-16T02:40:06;19.98;70.97
78896;HTU21D;68284;59.124;37.910;2023-07-16T02:42:32;20.03;70.79
78896;HTU21D;68284;59.124;37.910;2023-07-16T02:44:59;20.09;70.68
78896;HTU21D;68284;59.124;37.910;2023-07-16T02:47:25;20.12;70.64
78896;HTU21D;68284;59.124;37.910;2023-07-16T02:49:51;20.15;70.58
78896;HTU21D;68284;59.124;37.910;2023-07-16T02:52:18;20.17;70.61
78896;HTU21D;68284;59.124;37.910;2023-07-16T02:54:44;20.18;70.65
78896;HTU21D;68284;59.124;37.910;2023-07-16T02:57:11;20.21;70.75
78896;HTU21D;68284;59.124;37.910;2023-07-16T02:59:37;20.21;70.87
78896;HTU21D;68284;59.124;37.910;2023-07-16T03:02:03;20.25;70.96
78896;HTU21D;68284;59.124;37.910;2023-07-16T03:04:30;20.28;71.10
78896;HTU21D;68284;59.124;37.910;2023-07-16T03:06:56;20.30;71.22
78896;HTU21D;68284;59.124;37.910;2023-07-16T03:09:22;20.31;71.34
78896;HTU21D;68284;59.124;37.910;2023-07-16T03:11:49;20.33;71.37
78896;HTU21D;68284;59.124;37.910;2023-07-16T03:14:15;20.40;71.40
78896;HTU21D;68284;59.124;37.910;2023-07-16T03:16:41;20.42;71.38
78896;HTU21D;68284;59.124;37.910;2023-07-16T03:19:08;20.46;71.39
78896;HTU21D;68284;59.124;37.910;2023-07-16T03:21:35;20.47;71.48
78896;HTU21D;68284;59.124;37.910;2023-07-16T03:24:01;20.54;71.47
78896;HTU21D;68284;59.124;37.910;2023-07-16T03:26:27;20.61;71.42
78896;HTU21D;68284;59.124;37.910;2023-07-16T03:28:54;20.69;71.27
78896;HTU21D;68284;59.124;37.910;2023-07-16T03:31:22;20.74;71.14
78896;HTU21D;68284;59.124;37.910;2023-07-16T03:33:49;20.78;71.12
78896;HTU21D;68284;59.124;37.910;2023-07-16T03:36:18;20.83;71.06
78896;HTU21D;68284;59.124;37.910;2023-07-16T03:38:44;20.84;71.06
78896;HTU21D;68284;59.124;37.910;2023-07-16T03:41:11;20.86;71.05
78896;HTU21D;68284;59.124;37.910;2023-07-16T03:43:37;20.89;70.98
78896;HTU21D;68284;59.124;37.910;2023-07-16T03:46:17;20.96;70.85
78896;HTU21D;68284;59.124;37.910;2023-07-16T03:48:44;21.05;70.66
78896;HTU21D;68284;59.124;37.910;2023-07-16T03:51:10;21.15;70.44
78896;HTU21D;68284;59.124;37.910;2023-07-16T03:53:37;21.22;70.19
78896;HTU21D;68284;59.124;37.910;2023-07-16T03:56:04;21.33;69.90
78896;HTU21D;68284;59.124;37.910;2023-07-16T03:58:30;21.49;69.35
78896;HTU21D;68284;59.124;37.910;2023-07-16T04:00:57;21.57;68.88
78896;HTU21D;68284;59.124;37.910;2023-07-16T04:03:24;21.68;68.42
78896;HTU21D;68284;59.124;37.910;2023-07-16T04:05:50;21.82;67.68
78896;HTU21D;68284;59.124;37.910;2023-07-16T04:08:16;21.93;66.67
78896;HTU21D;68284;59.124;37.910;2023-07-16T04:10:43;21.99;66.36
78896;HTU21D;68284;59.124;37.910;2023-07-16T04:13:09;22.08;66.27
78896;HTU21D;68284;59.124;37.910;2023-07-16T04:15:35;22.18;66.07
78896;HTU21D;68284;59.124;37.910;2023-07-16T04:18:01;22.27;65.50
78896;HTU21D;68284;59.124;37.910;2023-07-16T04:20:29;22.35;65.02
78896;HTU21D;68284;59.124;37.910;2023-07-16T04:22:56;22.40;64.47
78896;HTU21D;68284;59.124;37.910;2023-07-16T04:25:22;22.46;63.87
78896;HTU21D;68284;59.124;37.910;2023-07-16T04:27:49;22.54;63.15
78896;HTU21D;68284;59.124;37.910;2023-07-16T04:30:15;22.61;62.67
78896;HTU21D;68284;59.124;37.910;2023-07-16T04:32:41;22.64;62.37
78896;HTU21D;68284;59.124;37.910;2023-07-16T04:35:07;22.71;62.15
78896;HTU21D;68284;59.124;37.910;2023-07-16T04:37:34;22.78;61.86
78896;HTU21D;68284;59.124;37.910;2023-07-16T04:40:00;22.79;61.73
78896;HTU21D;68284;59.124;37.910;2023-07-16T04:42:26;22.79;61.76
78896;HTU21D;68284;59.124;37.910;2023-07-16T04:44:52;22.81;61.89
78896;HTU21D;68284;59.124;37.910;2023-07-16T04:47:19;22.82;61.83
78896;HTU21D;68284;59.124;37.910;2023-07-16T04:49:45;22.81;61.73
78896;HTU21D;68284;59.124;37.910;2023-07-16T04:52:11;22.81;61.70
78896;HTU21D;68284;59.124;37.910;2023-07-16T04:54:37;22.78;61.74
78896;HTU21D;68284;59.124;37.910;2023-07-16T04:57:06;22.80;61.77
78896;HTU21D;68284;59.124;37.910;2023-07-16T04:59:32;22.80;61.63
78896;HTU21D;68284;59.124;37.910;2023-07-16T05:01:59;22.85;61.47
78896;HTU21D;68284;59.124;37.910;2023-07-16T05:04:25;22.92;61.26
78896;HTU21D;68284;59.124;37.910;2023-07-16T05:06:51;22.97;61.25
78896;HTU21D;68284;59.124;37.910;2023-07-16T05:09:18;23.03;60.72
78896;HTU21D;68284;59.124;37.910;2023-07-16T05:11:45;23.07;60.60
78896;HTU21D;68284;59.124;37.910;2023-07-16T05:14:11;23.13;60.19
78896;HTU21D;68284;59.124;37.910;2023-07-16T05:16:38;23.14;59.94
78896;HTU21D;68284;59.124;37.910;2023-07-16T05:19:04;23.17;59.86
78896;HTU21D;68284;59.124;37.910;2023-07-16T05:21:30;23.18;59.99
78896;HTU21D;68284;59.124;37.910;2023-07-16T05:23:56;23.24;59.99
78896;HTU21D;68284;59.124;37.910;2023-07-16T05:26:22;23.29;59.96
78896;HTU21D;68284;59.124;37.910;2023-07-16T05:28:49;23.30;59.74
78896;HTU21D;68284;59.124;37.910;2023-07-16T05:31:15;23.34;59.48
78896;HTU21D;68284;59.124;37.910;2023-07-16T05:33:41;23.36;59.18
78896;HTU21D;68284;59.124;37.910;2023-07-16T05:36:07;23.43;58.61
78896;HTU21D;68284;59.124;37.910;2023-07-16T05:38:34;23.47;58.35
78896;HTU21D;68284;59.124;37.910;2023-07-16T05:41:03;23.57;58.11
78896;HTU21D;68284;59.124;37.910;2023-07-16T05:43:31;23.67;58.00
78896;HTU21D;68284;59.124;37.910;2023-07-16T05:45:58;23.76;57.76
78896;HTU21D;68284;59.124;37.910;2023-07-16T05:48:24;23.84;57.38
78896;HTU21D;68284;59.124;37.910;2023-07-16T05:50:51;23.84;56.82
78896;HTU21D;68284;59.124;37.910;2023-07-16T05:53:17;23.86;56.40
78896;HTU21D;68284;59.124;37.910;2023-07-16T05:55:43;23.96;56.16
78896;HTU21D;68284;59.124;37.910;2023-07-16T05:58:09;24.04;55.92
78896;HTU21D;68284;59.124;37.910;2023-07-16T06:00:36;24.16;55.61
78896;HTU21D;68284;59.124;37.910;2023-07-16T06:03:02;24.28;55.27
78896;HTU21D;68284;59.124;37.910;2023-07-16T06:05:29;24.40;54.46
78896;HTU21D;68284;59.124;37.910;2023-07-16T06:08:00;24.45;53.68
78896;HTU21D;68284;59.124;37.910;2023-07-16T06:10:27;24.46;53.68
78896;HTU21D;68284;59.124;37.910;2023-07-16T06:12:54;24.44;53.58
78896;HTU21D;68284;59.124;37.910;2023-07-16T06:15:20;24.42;53.57
78896;HTU21D;68284;59.124;37.910;2023-07-16T06:17:46;24.45;53.36
78896;HTU21D;68284;59.124;37.910;2023-07-16T06:20:12;24.56;52.92
78896;HTU21D;68284;59.124;37.910;2023-07-16T06:22:39;24.65;52.07
78896;HTU21D;68284;59.124;37.910;2023-07-16T06:25:05;24.70;51.79
78896;HTU21D;68284;59.124;37.910;2023-07-16T06:27:32;24.75;51.82
78896;HTU21D;68284;59.124;37.910;2023-07-16T06:29:58;24.79;51.76
78896;HTU21D;68284;59.124;37.910;2023-07-16T06:32:24;24.85;50.91
78896;HTU21D;68284;59.124;37.910;2023-07-16T06:34:50;24.88;50.14
78896;HTU21D;68284;59.124;37.910;2023-07-16T06:37:17;24.92;49.79
78896;HTU21D;68284;59.124;37.910;2023-07-16T06:39:43;24.97;49.59
78896;HTU21D;68284;59.124;37.910;2023-07-16T06:42:09;25.04;49.11
78896;HTU21D;68284;59.124;37.910;2023-07-16T06:44:35;25.12;48.86
78896;HTU21D;68284;59.124;37.910;2023-07-16T06:47:02;25.17;48.05
78896;HTU21D;68284;59.124;37.910;2023-07-16T06:49:29;25.20;46.85
78896;HTU21D;68284;59.124;37.910;2023-07-16T06:51:55;25.23;45.98
78896;HTU21D;68284;59.124;37.910;2023-07-16T06:54:22;25.25;45.64
78896;HTU21D;68284;59.124;37.910;2023-07-16T06:56:48;25.30;45.67
78896;HTU21D;68284;59.124;37.910;2023-07-16T06:59:14;25.37;44.52
78896;HTU21D;68284;59.124;37.910;2023-07-16T07:01:40;25.44;44.37
78896;HTU21D;68284;59.124;37.910;2023-07-16T07:04:06;25.48;44.22
78896;HTU21D;68284;59.124;37.910;2023-07-16T07:06:33;25.56;43.79
78896;HTU21D;68284;59.124;37.910;2023-07-16T07:08:59;25.63;43.38
78896;HTU21D;68284;59.124;37.910;2023-07-16T07:11:25;25.69;42.52
78896;HTU21D;68284;59.124;37.910;2023-07-16T07:13:52;25.73;42.45
78896;HTU21D;68284;59.124;37.910;2023-07-16T07:16:18;25.79;42.69
78896;HTU21D;68284;59.124;37.910;2023-07-16T07:18:45;25.87;42.68
78896;HTU21D;68284;59.124;37.910;2023-07-16T07:21:11;25.94;42.75
78896;HTU21D;68284;59.124;37.910;2023-07-16T07:23:38;26.03;42.71
78896;HTU21D;68284;59.124;37.910;2023-07-16T07:26:04;26.08;42.54
78896;HTU21D;68284;59.124;37.910;2023-07-16T07:28:31;26.06;42.36
78896;HTU21D;68284;59.124;37.910;2023-07-16T07:30:57;26.06;42.58
78896;HTU21D;68284;59.124;37.910;2023-07-16T07:33:23;26.09;42.72
78896;HTU21D;68284;59.124;37.910;2023-07-16T07:35:53;26.16;42.89
78896;HTU21D;68284;59.124;37.910;2023-07-16T07:38:21;26.25;42.90
78896;HTU21D;68284;59.124;37.910;2023-07-16T07:40:47;26.32;42.84
78896;HTU21D;68284;59.124;37.910;2023-07-16T07:43:14;26.46;42.34
78896;HTU21D;68284;59.124;37.910;2023-07-16T07:45:40;26.64;41.98
78896;HTU21D;68284;59.124;37.910;2023-07-16T07:48:06;26.87;41.78
78896;HTU21D;68284;59.124;37.910;2023-07-16T07:50:32;27.01;41.52
78896;HTU21D;68284;59.124;37.910;2023-07-16T07:52:58;27.15;41.32
78896;HTU21D;68284;59.124;37.910;2023-07-16T07:55:25;27.35;40.70
78896;HTU21D;68284;59.124;37.910;2023-07-16T07:57:51;27.46;40.19
78896;HTU21D;68284;59.124;37.910;2023-07-16T08:00:17;27.56;40.35
78896;HTU21D;68284;59.124;37.910;2023-07-16T08:02:44;27.58;40.37
78896;HTU21D;68284;59.124;37.910;2023-07-16T08:05:10;27.61;40.41
78896;HTU21D;68284;59.124;37.910;2023-07-16T08:07:36;27.70;40.23
78896;HTU21D;68284;59.124;37.910;2023-07-16T08:10:03;27.83;40.02
78896;HTU21D;68284;59.124;37.910;2023-07-16T08:12:29;28.01;39.66
78896;HTU21D;68284;59.124;37.910;2023-07-16T08:14:57;28.16;38.97
78896;HTU21D;68284;59.124;37.910;2023-07-16T08:17:23;28.21;38.75
78896;HTU21D;68284;59.124;37.910;2023-07-16T08:19:49;28.23;38.94
78896;HTU21D;68284;59.124;37.910;2023-07-16T08:22:16;28.20;38.90
78896;HTU21D;68284;59.124;37.910;2023-07-16T08:24:42;28.17;38.49
78896;HTU21D;68284;59.124;37.910;2023-07-16T08:27:08;28.15;38.43
78896;HTU21D;68284;59.124;37.910;2023-07-16T08:29:37;28.11;38.57
78896;HTU21D;68284;59.124;37.910;2023-07-16T08:32:04;28.09;38.64
78896;HTU21D;68284;59.124;37.910;2023-07-16T08:34:30;28.11;38.16
78896;HTU21D;68284;59.124;37.910;2023-07-16T08:36:57;28.13;38.08
78896;HTU21D;68284;59.124;37.910;2023-07-16T08:39:23;28.26;37.44
78896;HTU21D;68284;59.124;37.910;2023-07-16T08:41:49;28.49;36.83
78896;HTU21D;68284;59.124;37.910;2023-07-16T08:44:16;28.73;36.86
78896;HTU21D;68284;59.124;37.910;2023-07-16T08:46:42;28.76;36.82
78896;HTU21D;68284;59.124;37.910;2023-07-16T08:49:10;28.62;36.91
78896;HTU21D;68284;59.124;37.910;2023-07-16T08:51:37;28.45;37.26
78896;HTU21D;68284;59.124;37.910;2023-07-16T08:54:05;28.27;37.59
78896;HTU21D;68284;59.124;37.910;2023-07-16T08:56:31;28.12;37.71
78896;HTU21D;68284;59.124;37.910;2023-07-16T08:58:58;27.95;37.97
78896;HTU21D;68284;59.124;37.910;2023-07-16T09:01:29;27.83;38.34
78896;HTU21D;68284;59.124;37.910;2023-07-16T09:03:56;27.74;38.66
78896;HTU21D;68284;59.124;37.910;2023-07-16T09:06:23;27.66;39.00
78896;HTU21D;68284;59.124;37.910;2023-07-16T09:08:54;27.58;39.04
78896;HTU21D;68284;59.124;37.910;2023-07-16T09:11:23;27.55;40.55
78896;HTU21D;68284;59.124;37.910;2023-07-16T09:14:03;27.61;41.27
78896;HTU21D;68284;59.124;37.910;2023-07-16T09:16:34;27.68;40.66
78896;HTU21D;68284;59.124;37.910;2023-07-16T09:19:06;27.63;40.38
78896;HTU21D;68284;59.124;37.910;2023-07-16T09:21:33;27.60;40.55
78896;HTU21D;68284;59.124;37.910;2023-07-16T09:24:06;27.64;40.75
78896;HTU21D;68284;59.124;37.910;2023-07-16T09:26:36;27.71;41.27
78896;HTU21D;68284;59.124;37.910;2023-07-16T09:29:07;27.75;42.05
78896;HTU21D;68284;59.124;37.910;2023-07-16T09:31:58;27.88;41.35
78896;HTU21D;68284;59.124;37.910;2023-07-16T09:34:29;28.04;41.81
78896;HTU21D;68284;59.124;37.910;2023-07-16T09:37:00;28.19;42.67
78896;HTU21D;68284;59.124;37.910;2023-07-16T09:39:31;28.31;41.94
78896;HTU21D;68284;59.124;37.910;2023-07-16T09:41:59;28.33;40.84
78896;HTU21D;68284;59.124;37.910;2023-07-16T09:44:25;28.35;41.55
78896;HTU21D;68284;59.124;37.910;2023-07-16T09:46:52;28.41;41.73
78896;HTU21D;68284;59.124;37.910;2023-07-16T09:49:19;28.53;42.37
78896;HTU21D;68284;59.124;37.910;2023-07-16T09:51:49;28.65;41.74
78896;HTU21D;68284;59.124;37.910;2023-07-16T09:54:18;28.82;41.92
78896;HTU21D;68284;59.124;37.910;2023-07-16T09:56:53;28.94;40.03
78896;HTU21D;68284;59.124;37.910;2023-07-16T09:59:26;29.04;38.99
78896;HTU21D;68284;59.124;37.910;2023-07-16T10:01:55;29.05;38.19
78896;HTU21D;68284;59.124;37.910;2023-07-16T10:04:38;29.01;37.79
78896;HTU21D;68284;59.124;37.910;2023-07-16T10:07:41;28.87;37.75
78896;HTU21D;68284;59.124;37.910;2023-07-16T10:10:11;28.79;37.91
78896;HTU21D;68284;59.124;37.910;2023-07-16T10:12:41;28.75;38.09
78896;HTU21D;68284;59.124;37.910;2023-07-16T10:15:11;28.78;38.19
78896;HTU21D;68284;59.124;37.910;2023-07-16T10:17:50;28.77;38.32
78896;HTU21D;68284;59.124;37.910;2023-07-16T10:20:31;28.69;38.66
78896;HTU21D;68284;59.124;37.910;2023-07-16T10:23:12;28.61;38.89
78896;HTU21D;68284;59.124;37.910;2023-07-16T10:26:01;28.59;38.52
78896;HTU21D;68284;59.124;37.910;2023-07-16T10:28:39;28.63;38.88
78896;HTU21D;68284;59.124;37.910;2023-07-16T10:31:23;28.80;38.69
78896;HTU21D;68284;59.124;37.910;2023-07-16T10:34:03;29.09;38.02
78896;HTU21D;68284;59.124;37.910;2023-07-16T10:36:47;29.34;36.31
78896;HTU21D;68284;59.124;37.910;2023-07-16T10:39:17;29.42;36.02
78896;HTU21D;68284;59.124;37.910;2023-07-16T10:41:43;29.44;35.02
78896;HTU21D;68284;59.124;37.910;2023-07-16T10:44:13;29.50;34.88
78896;HTU21D;68284;59.124;37.910;2023-07-16T10:46:43;29.71;34.68
78896;HTU21D;68284;59.124;37.910;2023-07-16T10:49:14;29.97;34.86
78896;HTU21D;68284;59.124;37.910;2023-07-16T10:51:40;30.28;34.21
78896;HTU21D;68284;59.124;37.910;2023-07-16T10:54:07;30.40;34.06
78896;HTU21D;68284;59.124;37.910;2023-07-16T10:56:35;30.25;33.83
78896;HTU21D;68284;59.124;37.910;2023-07-16T10:59:03;29.97;33.80
78896;HTU21D;68284;59.124;37.910;2023-07-16T11:01:33;29.94;33.00
78896;HTU21D;68284;59.124;37.910;2023-07-16T11:04:07;29.81;32.98
78896;HTU21D;68284;59.124;37.910;2023-07-16T11:06:33;29.60;33.72
78896;HTU21D;68284;59.124;37.910;2023-07-16T11:09:11;29.38;33.90
78896;HTU21D;68284;59.124;37.910;2023-07-16T11:11:41;29.22;33.98
78896;HTU21D;68284;59.124;37.910;2023-07-16T11:14:09;29.08;33.89
78896;HTU21D;68284;59.124;37.910;2023-07-16T11:16:37;28.97;33.99
78896;HTU21D;68284;59.124;37.910;2023-07-16T11:19:06;28.89;34.28
78896;HTU21D;68284;59.124;37.910;2023-07-16T11:21:40;28.86;34.60
78896;HTU21D;68284;59.124;37.910;2023-07-16T11:24:11;28.91;34.34
78896;HTU21D;68284;59.124;37.910;2023-07-16T11:26:38;29.15;34.35
78896;HTU21D;68284;59.124;37.910;2023-07-16T11:29:16;29.33;34.03
78896;HTU21D;68284;59.124;37.910;2023-07-16T11:31:52;29.45;34.13
78896;HTU21D;68284;59.124;37.910;2023-07-16T11:34:22;29.54;34.35
78896;HTU21D;68284;59.124;37.910;2023-07-16T11:36:50;29.63;34.19
78896;HTU21D;68284;59.124;37.910;2023-07-16T11:39:16;29.73;34.41
78896;HTU21D;68284;59.124;37.910;2023-07-16T11:41:57;29.97;34.02
78896;HTU21D;68284;59.124;37.910;2023-07-16T11:44:24;30.40;33.43
78896;HTU21D;68284;59.124;37.910;2023-07-16T11:46:52;30.89;33.44
78896;HTU21D;68284;59.124;37.910;2023-07-16T11:49:20;31.41;32.23
78896;HTU21D;68284;59.124;37.910;2023-07-16T11:51:47;32.16;31.33
78896;HTU21D;68284;59.124;37.910;2023-07-16T11:54:14;32.96;30.29
78896;HTU21D;68284;59.124;37.910;2023-07-16T11:56:42;33.68;28.54
78896;HTU21D;68284;59.124;37.910;2023-07-16T11:59:22;34.32;27.55
78896;HTU21D;68284;59.124;37.910;2023-07-16T12:01:48;34.90;27.04
78896;HTU21D;68284;59.124;37.910;2023-07-16T12:04:18;35.39;27.96
78896;HTU21D;68284;59.124;37.910;2023-07-16T12:06:50;36.00;27.23
78896;HTU21D;68284;59.124;37.910;2023-07-16T12:09:19;36.45;26.78
78896;HTU21D;68284;59.124;37.910;2023-07-16T12:11:45;36.85;25.13
78896;HTU21D;68284;59.124;37.910;2023-07-16T12:14:12;37.13;24.89
78896;HTU21D;68284;59.124;37.910;2023-07-16T12:16:39;37.46;24.82
78896;HTU21D;68284;59.124;37.910;2023-07-16T12:19:08;37.78;24.40
78896;HTU21D;68284;59.124;37.910;2023-07-16T12:21:36;38.15;23.98
78896;HTU21D;68284;59.124;37.910;2023-07-16T12:24:02;38.44;23.43
78896;HTU21D;68284;59.124;37.910;2023-07-16T12:26:29;38.58;22.93
78896;HTU21D;68284;59.124;37.910;2023-07-16T12:28:55;38.76;22.61
78896;HTU21D;68284;59.124;37.910;2023-07-16T12:31:21;39.03;22.07
78896;HTU21D;68284;59.124;37.910;2023-07-16T12:33:49;39.24;21.95
78896;HTU21D;68284;59.124;37.910;2023-07-16T12:36:18;39.40;21.23
78896;HTU21D;68284;59.124;37.910;2023-07-16T12:38:46;39.48;21.53
78896;HTU21D;68284;59.124;37.910;2023-07-16T12:41:13;39.61;21.57
78896;HTU21D;68284;59.124;37.910;2023-07-16T12:43:45;39.85;20.42
78896;HTU21D;68284;59.124;37.910;2023-07-16T12:46:12;40.07;19.53
78896;HTU21D;68284;59.124;37.910;2023-07-16T12:48:38;40.32;20.30
78896;HTU21D;68284;59.124;37.910;2023-07-16T12:51:12;40.53;18.69
78896;HTU21D;68284;59.124;37.910;2023-07-16T12:53:40;40.52;18.09
78896;HTU21D;68284;59.124;37.910;2023-07-16T12:56:07;40.43;17.78
78896;HTU21D;68284;59.124;37.910;2023-07-16T12:58:33;40.36;17.90
78896;HTU21D;68284;59.124;37.910;2023-07-16T13:01:00;40.45;18.65
78896;HTU21D;68284;59.124;37.910;2023-07-16T13:03:26;40.57;17.91
78896;HTU21D;68284;59.124;37.910;2023-07-16T13:05:52;40.46;18.83
78896;HTU21D;68284;59.124;37.910;2023-07-16T13:08:19;39.76;18.37
78896;HTU21D;68284;59.124;37.910;2023-07-16T13:10:50;38.61;20.26
78896;HTU21D;68284;59.124;37.910;2023-07-16T13:13:16;37.46;20.89
78896;HTU21D;68284;59.124;37.910;2023-07-16T13:15:43;36.38;22.85
78896;HTU21D;68284;59.124;37.910;2023-07-16T13:18:09;35.51;24.33
78896;HTU21D;68284;59.124;37.910;2023-07-16T13:20:37;34.79;24.47
78896;HTU21D;68284;59.124;37.910;2023-07-16T13:23:04;34.17;25.43
78896;HTU21D;68284;59.124;37.910;2023-07-16T13:25:31;33.64;25.52
78896;HTU21D;68284;59.124;37.910;2023-07-16T13:27:57;33.11;26.16
78896;HTU21D;68284;59.124;37.910;2023-07-16T13:30:28;32.56;26.62
78896;HTU21D;68284;59.124;37.910;2023-07-16T13:32:54;32.17;26.74
78896;HTU21D;68284;59.124;37.910;2023-07-16T13:35:25;32.07;26.59
78896;HTU21D;68284;59.124;37.910;2023-07-16T13:37:51;31.90;26.68
78896;HTU21D;68284;59.124;37.910;2023-07-16T13:40:17;31.69;27.35
78896;HTU21D;68284;59.124;37.910;2023-07-16T13:42:46;31.42;28.16
78896;HTU21D;68284;59.124;37.910;2023-07-16T13:45:14;31.15;28.93
78896;HTU21D;68284;59.124;37.910;2023-07-16T13:47:40;30.93;30.05
78896;HTU21D;68284;59.124;37.910;2023-07-16T13:50:09;30.74;30.86
78896;HTU21D;68284;59.124;37.910;2023-07-16T13:52:36;30.52;30.90
78896;HTU21D;68284;59.124;37.910;2023-07-16T13:55:04;30.28;31.92
78896;HTU21D;68284;59.124;37.910;2023-07-16T13:57:31;30.11;32.45
78896;HTU21D;68284;59.124;37.910;2023-07-16T13:59:57;30.02;32.93
78896;HTU21D;68284;59.124;37.910;2023-07-16T14:02:24;29.95;33.31
78896;HTU21D;68284;59.124;37.910;2023-07-16T14:04:52;29.86;33.44
78896;HTU21D;68284;59.124;37.910;2023-07-16T14:07:19;29.73;33.73
78896;HTU21D;68284;59.124;37.910;2023-07-16T14:09:46;29.62;33.94
78896;HTU21D;68284;59.124;37.910;2023-07-16T14:12:15;29.51;34.17
78896;HTU21D;68284;59.124;37.910;2023-07-16T14:14:42;29.37;34.37
78896;HTU21D;68284;59.124;37.910;2023-07-16T14:17:08;29.17;34.75
78896;HTU21D;68284;59.124;37.910;2023-07-16T14:19:35;28.99;35.07
78896;HTU21D;68284;59.124;37.910;2023-07-16T14:22:03;28.86;35.02
78896;HTU21D;68284;59.124;37.910;2023-07-16T14:24:32;28.76;35.49
78896;HTU21D;68284;59.124;37.910;2023-07-16T14:26:59;28.75;35.52
78896;HTU21D;68284;59.124;37.910;2023-07-16T14:29:28;28.76;35.95
78896;HTU21D;68284;59.124;37.910;2023-07-16T14:31:55;28.80;36.06
78896;HTU21D;68284;59.124;37.910;2023-07-16T14:34:22;28.85;35.90
78896;HTU21D;68284;59.124;37.910;2023-07-16T14:36:48;28.86;35.52
78896;HTU21D;68284;59.124;37.910;2023-07-16T14:39:14;28.85;35.59
78896;HTU21D;68284;59.124;37.910;2023-07-16T14:41:41;28.84;35.27
78896;HTU21D;68284;59.124;37.910;2023-07-16T14:44:09;28.83;35.00
78896;HTU21D;68284;59.124;37.910;2023-07-16T14:46:35;28.75;35.08
78896;HTU21D;68284;59.124;37.910;2023-07-16T14:49:03;28.68;35.36
78896;HTU21D;68284;59.124;37.910;2023-07-16T14:51:32;28.59;35.24
78896;HTU21D;68284;59.124;37.910;2023-07-16T14:54:09;28.52;35.34
78896;HTU21D;68284;59.124;37.910;2023-07-16T14:56:39;28.56;35.50
78896;HTU21D;68284;59.124;37.910;2023-07-16T14:59:07;28.60;35.61
78896;HTU21D;68284;59.124;37.910;2023-07-16T15:01:34;28.63;35.39
78896;HTU21D;68284;59.124;37.910;2023-07-16T15:04:01;28.68;35.28
78896;HTU21D;68284;59.124;37.910;2023-07-16T15:06:27;28.73;34.95
78896;HTU21D;68284;59.124;37.910;2023-07-16T15:08:53;28.75;34.83
78896;HTU21D;68284;59.124;37.910;2023-07-16T15:11:20;28.80;34.89
78896;HTU21D;68284;59.124;37.910;2023-07-16T15:13:46;28.83;34.84